createdAt,value
2019-05-03T00:00:12.286Z,14.27
2019-05-03T00:02:55.791Z,14.17
2019-05-03T00:05:45.187Z,13.40
2019-05-03T00:08:12.749Z,11.83
2019-05-03T00:10:42.364Z,14.03
2019-05-03T00:13:12.517Z,11.63
2019-05-03T00:15:47.707Z,14.03
2019-05-03T00:18:14.875Z,14.93
2019-05-03T00:20:42.127Z,14.57
2019-05-03T00:23:09.262Z,11.53
2019-05-03T00:25:36.354Z,14.10
2019-05-03T00:28:03.826Z,13.33
2019-05-03T00:30:31.989Z,13.03
2019-05-03T00:32:59.527Z,13.60
2019-05-03T00:35:36.968Z,13.57
2019-05-03T00:38:06.470Z,14.93
2019-05-03T00:40:33.559Z,15.70
2019-05-03T00:43:02.330Z,16.83
2019-05-03T00:45:31.496Z,14.63
2019-05-03T00:47:58.750Z,15.47
2019-05-03T00:50:25.853Z,13.13
2019-05-03T00:52:52.950Z,16.70
2019-05-03T00:55:21.893Z,18.10
2019-05-03T00:57:49.133Z,15.57
2019-05-03T01:00:16.506Z,16.33
2019-05-03T01:02:43.942Z,15.87
2019-05-03T01:05:11.954Z,19.17
2019-05-03T01:07:39.398Z,18.97
2019-05-03T01:10:08.512Z,18.83
2019-05-03T01:12:35.704Z,14.63
2019-05-03T01:15:05.544Z,14.50
2019-05-03T01:17:34.851Z,12.00
2019-05-03T01:20:02.763Z,15.63
2019-05-03T01:22:31.998Z,16.07
2019-05-03T01:24:59.158Z,15.97
2019-05-03T01:27:26.251Z,18.03
2019-05-03T01:29:53.335Z,19.17
2019-05-03T01:32:22.252Z,13.87
2019-05-03T01:34:49.506Z,14.83
2019-05-03T01:37:16.594Z,18.03
2019-05-03T01:39:43.683Z,14.67
2019-05-03T01:42:11.955Z,14.63
2019-05-03T01:44:59.113Z,20.10
2019-05-03T01:47:34.031Z,13.27
2019-05-03T01:50:09.022Z,16.27
2019-05-03T01:52:38.653Z,15.77
2019-05-03T01:55:06.039Z,15.30
2019-05-03T01:57:33.110Z,20.00
2019-05-03T02:00:00.187Z,14.40
2019-05-03T02:02:45.750Z,14.43
2019-05-03T02:05:39.531Z,18.47
2019-05-03T02:08:06.620Z,13.53
2019-05-03T02:10:33.704Z,15.07
2019-05-03T02:13:01.671Z,16.80
2019-05-03T02:15:28.980Z,17.00
2019-05-03T02:17:57.461Z,19.50
2019-05-03T02:20:24.640Z,13.40
2019-05-03T02:22:52.197Z,16.27
2019-05-03T02:25:21.644Z,16.23
2019-05-03T02:27:48.580Z,14.43
2019-05-03T02:30:19.176Z,15.53
2019-05-03T02:32:46.255Z,15.03
2019-05-03T02:35:14.170Z,14.20
2019-05-03T02:37:44.155Z,12.80
2019-05-03T02:40:13.034Z,18.87
2019-05-03T02:42:42.754Z,14.47
2019-05-03T02:45:16.352Z,16.93
2019-05-03T02:48:06.129Z,12.50
2019-05-03T02:50:36.001Z,16.90
2019-05-03T02:53:02.491Z,12.10
2019-05-03T02:55:29.582Z,14.77
2019-05-03T02:57:56.643Z,18.37
2019-05-03T03:00:50.495Z,16.37
2019-05-03T03:03:17.687Z,13.47
2019-05-03T03:05:46.417Z,13.50
2019-05-03T03:08:16.317Z,14.53
2019-05-03T03:10:45.507Z,13.63
2019-05-03T03:13:13.023Z,10.97
2019-05-03T03:15:42.017Z,13.90
2019-05-03T03:18:09.691Z,13.10
2019-05-03T03:20:37.576Z,14.70
2019-05-03T03:23:08.267Z,13.50
2019-05-03T03:25:39.297Z,14.27
2019-05-03T03:28:09.397Z,16.03
2019-05-03T03:31:17.804Z,16.47
2019-05-03T03:33:47.499Z,15.00
2019-05-03T03:36:37.990Z,16.23
2019-05-03T03:38:45.763Z,14.07
2019-05-03T03:41:16.306Z,12.20
2019-05-03T03:43:46.456Z,13.90
2019-05-03T03:46:15.746Z,16.07
2019-05-03T03:48:46.065Z,15.80
2019-05-03T03:51:15.514Z,14.57
2019-05-03T03:53:46.547Z,12.07
2019-05-03T03:56:16.067Z,16.60
2019-05-03T03:58:46.302Z,14.63
2019-05-03T04:01:15.533Z,16.00
2019-05-03T04:03:45.738Z,15.53
2019-05-03T04:06:11.652Z,15.83
2019-05-03T04:08:40.266Z,14.40
2019-05-03T04:11:07.939Z,16.50
2019-05-03T04:13:38.972Z,14.17
2019-05-03T04:16:45.629Z,18.47
2019-05-03T04:19:20.189Z,15.33
2019-05-03T04:21:49.304Z,14.73
2019-05-03T04:24:18.807Z,12.80
2019-05-03T04:26:51.870Z,16.57
2019-05-03T04:29:21.371Z,16.23
2019-05-03T04:31:50.359Z,15.30
2019-05-03T04:34:19.488Z,14.87
2019-05-03T04:36:48.560Z,19.70
2019-05-03T04:39:20.231Z,16.20
2019-05-03T04:41:48.447Z,14.50
2019-05-03T04:44:17.460Z,15.13
2019-05-03T04:46:46.621Z,18.57
2019-05-03T04:49:15.929Z,15.60
2019-05-03T04:51:46.492Z,17.33
2019-05-03T04:54:37.017Z,15.83
2019-05-03T04:57:06.567Z,15.53
2019-05-03T04:59:35.876Z,16.53
2019-05-03T05:02:05.856Z,14.27
2019-05-03T05:04:32.419Z,16.37
2019-05-03T05:06:59.494Z,15.73
2019-05-03T05:09:26.683Z,15.80
2019-05-03T05:11:54.904Z,16.57
2019-05-03T05:14:22.626Z,15.83
2019-05-03T05:16:49.708Z,18.63
2019-05-03T05:19:21.686Z,16.57
2019-05-03T05:21:54.923Z,15.20
2019-05-03T05:24:21.910Z,13.77
2019-05-03T05:27:05.418Z,16.57
2019-05-03T05:29:34.632Z,20.97
2019-05-03T05:32:01.794Z,14.73
2019-05-03T05:34:28.871Z,17.20
2019-05-03T05:36:55.939Z,14.77
2019-05-03T05:39:24.482Z,16.50
2019-05-03T05:41:51.971Z,16.73
2019-05-03T05:44:19.043Z,15.00
2019-05-03T05:46:56.275Z,14.30
2019-05-03T05:49:58.109Z,12.80
2019-05-03T05:52:25.282Z,10.60
2019-05-03T05:55:01.226Z,10.20
2019-05-03T05:57:39.550Z,9.83
2019-05-03T06:00:15.337Z,10.93
2019-05-03T06:02:44.618Z,12.70
2019-05-03T06:05:11.830Z,10.50
2019-05-03T06:07:46.594Z,13.13
2019-05-03T06:10:24.834Z,12.80
2019-05-03T06:13:15.244Z,12.53
2019-05-03T06:15:56.674Z,13.43
2019-05-03T06:18:40.851Z,14.67
2019-05-03T06:21:15.743Z,10.40
2019-05-03T06:23:48.849Z,8.73
2019-05-03T06:26:35.591Z,10.90
2019-05-03T06:29:04.589Z,11.20
2019-05-03T06:31:38.827Z,11.83
2019-05-03T06:34:05.992Z,9.50
2019-05-03T06:36:33.051Z,10.27
2019-05-03T06:39:00.103Z,10.73
2019-05-03T06:41:27.172Z,10.90
2019-05-03T06:43:55.265Z,12.73
2019-05-03T06:46:42.295Z,12.07
2019-05-03T06:49:11.212Z,8.87
2019-05-03T06:51:39.985Z,8.07
2019-05-03T06:54:07.727Z,11.70
2019-05-03T06:56:35.058Z,11.00
2019-05-03T06:59:02.891Z,15.63
2019-05-03T07:01:37.156Z,10.07
2019-05-03T07:04:12.089Z,9.93
2019-05-03T07:07:01.543Z,13.27
2019-05-03T07:09:50.947Z,8.53
2019-05-03T07:12:18.010Z,9.50
2019-05-03T07:14:45.128Z,8.13
2019-05-03T07:17:14.382Z,8.57
2019-05-03T07:19:41.269Z,8.07
2019-05-03T07:22:08.324Z,10.13
2019-05-03T07:24:40.327Z,8.63
2019-05-03T07:27:05.436Z,7.03
2019-05-03T07:29:32.700Z,11.73
2019-05-03T07:31:59.750Z,6.40
2019-05-03T07:34:26.820Z,8.57
2019-05-03T07:36:55.547Z,6.90
2019-05-03T07:39:24.554Z,9.33
2019-05-03T07:41:51.921Z,8.60
2019-05-03T07:44:19.431Z,9.07
2019-05-03T07:46:46.595Z,6.73
2019-05-03T07:49:15.320Z,5.63
2019-05-03T07:51:44.770Z,7.17
2019-05-03T07:54:11.916Z,9.37
2019-05-03T07:56:44.583Z,8.83
2019-05-03T07:59:11.903Z,10.43
2019-05-03T08:01:42.556Z,10.40
2019-05-03T08:04:09.731Z,9.33
2019-05-03T08:06:37.905Z,13.87
2019-05-03T08:09:06.628Z,7.67
2019-05-03T08:11:35.219Z,8.07
2019-05-03T08:14:04.844Z,8.53
2019-05-03T08:16:32.039Z,8.80
2019-05-03T08:18:59.199Z,6.83
2019-05-03T08:21:26.497Z,8.43
2019-05-03T08:23:55.489Z,7.83
2019-05-03T08:26:22.756Z,6.27
2019-05-03T08:28:49.812Z,7.93
2019-05-03T08:31:43.056Z,4.60
2019-05-03T08:34:17.105Z,6.80
2019-05-03T08:37:02.076Z,4.53
2019-05-03T08:39:29.169Z,6.73
2019-05-03T08:41:58.815Z,3.93
2019-05-03T08:44:26.145Z,4.07
2019-05-03T08:46:56.268Z,6.57
2019-05-03T08:49:22.551Z,6.93
2019-05-03T08:51:49.707Z,6.37
2019-05-03T08:54:16.768Z,8.80
2019-05-03T08:56:45.147Z,6.07
2019-05-03T08:59:12.288Z,5.50
2019-05-03T09:01:39.562Z,5.27
2019-05-03T09:04:06.820Z,7.60
2019-05-03T09:06:35.489Z,5.17
2019-05-03T09:09:07.264Z,6.27
2019-05-03T09:11:36.773Z,6.40
2019-05-03T09:14:06.222Z,5.70
2019-05-03T09:16:35.430Z,5.57
2019-05-03T09:19:02.249Z,8.00
2019-05-03T09:21:29.409Z,7.37
2019-05-03T09:23:56.464Z,9.17
2019-05-03T09:26:26.886Z,7.33
2019-05-03T09:28:52.500Z,5.83
2019-05-03T09:31:19.572Z,8.73
2019-05-03T09:33:46.637Z,7.07
2019-05-03T09:36:14.704Z,4.87
2019-05-03T09:38:42.080Z,5.23
2019-05-03T09:41:09.244Z,7.83
2019-05-03T09:43:36.317Z,7.77
2019-05-03T09:46:05.157Z,7.73
2019-05-03T09:48:34.700Z,6.73
2019-05-03T09:51:02.261Z,8.97
2019-05-03T09:53:35.017Z,5.43
2019-05-03T09:56:01.931Z,7.60
2019-05-03T09:58:28.992Z,6.17
2019-05-03T10:00:56.049Z,7.73
2019-05-03T10:03:23.104Z,5.63
2019-05-03T10:05:50.228Z,7.37
2019-05-03T10:08:17.299Z,6.53
2019-05-03T10:11:05.268Z,7.87
2019-05-03T10:13:32.054Z,7.03
2019-05-03T10:15:59.205Z,8.03
2019-05-03T10:18:26.296Z,3.53
2019-05-03T10:20:55.888Z,3.57
2019-05-03T10:23:37.727Z,7.33
2019-05-03T10:26:05.239Z,6.57
2019-05-03T10:28:32.427Z,7.33
2019-05-03T10:30:59.888Z,5.07
2019-05-03T10:33:31.396Z,7.90
2019-05-03T10:35:58.461Z,8.10
2019-05-03T10:38:25.525Z,7.03
2019-05-03T10:40:54.884Z,6.40
2019-05-03T10:43:21.772Z,5.57
2019-05-03T10:45:48.844Z,6.10
2019-05-03T10:48:16.138Z,6.83
2019-05-03T10:50:43.648Z,7.47
2019-05-03T10:53:17.269Z,7.83
2019-05-03T10:56:05.088Z,5.50
2019-05-03T10:58:35.555Z,6.20
2019-05-03T11:01:02.644Z,5.50
2019-05-03T11:03:29.812Z,8.70
2019-05-03T11:05:56.880Z,7.03
2019-05-03T11:08:23.927Z,6.13
2019-05-03T11:10:50.979Z,10.90
2019-05-03T11:13:18.044Z,5.47
2019-05-03T11:15:45.449Z,5.00
2019-05-03T11:18:14.588Z,8.83
2019-05-03T11:20:41.640Z,7.10
2019-05-03T11:23:09.491Z,6.20
2019-05-03T11:25:36.886Z,6.97
2019-05-03T11:28:10.272Z,9.17
2019-05-03T11:30:37.434Z,5.90
2019-05-03T11:33:16.156Z,7.07
2019-05-03T11:35:51.012Z,6.23
2019-05-03T11:38:22.911Z,5.33
2019-05-03T11:40:50.092Z,4.80
2019-05-03T11:43:19.583Z,5.07
2019-05-03T11:45:46.656Z,4.87
2019-05-03T11:48:14.791Z,5.50
2019-05-03T11:50:42.451Z,4.07
2019-05-03T11:53:10.619Z,5.30
2019-05-03T11:55:37.756Z,5.77
2019-05-03T11:58:17.479Z,5.70
2019-05-03T12:00:45.129Z,6.23
2019-05-03T12:03:22.090Z,5.80
2019-05-03T12:05:51.936Z,5.87
2019-05-03T12:08:18.995Z,7.67
2019-05-03T12:10:55.298Z,9.10
2019-05-03T12:13:24.694Z,7.23
2019-05-03T12:15:52.171Z,9.87
2019-05-03T12:18:19.533Z,6.93
2019-05-03T12:20:48.133Z,6.17
2019-05-03T12:23:16.823Z,9.17
2019-05-03T12:25:45.899Z,6.03
2019-05-03T12:28:15.301Z,5.87
2019-05-03T12:30:44.746Z,8.03
2019-05-03T12:33:11.865Z,6.70
2019-05-03T12:35:39.130Z,5.63
2019-05-03T12:38:06.202Z,8.10
2019-05-03T12:40:34.985Z,4.87
2019-05-03T12:43:02.672Z,6.80
2019-05-03T12:45:29.743Z,6.17
2019-05-03T12:47:56.817Z,8.03
2019-05-03T12:50:25.150Z,6.37
2019-05-03T12:52:52.704Z,5.80
2019-05-03T12:55:19.767Z,6.70
2019-05-03T12:57:46.827Z,3.83
2019-05-03T13:00:34.604Z,7.47
2019-05-03T13:03:05.688Z,6.60
2019-05-03T13:05:32.747Z,6.70
2019-05-03T13:08:25.287Z,6.90
2019-05-03T13:10:52.346Z,7.33
2019-05-03T13:13:19.426Z,9.03
2019-05-03T13:15:46.481Z,9.90
2019-05-03T13:18:15.562Z,7.23
2019-05-03T13:20:42.520Z,8.83
2019-05-03T13:23:12.702Z,7.67
2019-05-03T13:25:38.532Z,6.27
2019-05-03T13:28:05.633Z,9.13
2019-05-03T13:30:34.496Z,11.73
2019-05-03T13:33:01.815Z,10.30
2019-05-03T13:35:28.968Z,8.00
2019-05-03T13:37:56.119Z,10.63
2019-05-03T13:40:24.979Z,12.80
2019-05-03T13:42:57.107Z,9.90
2019-05-03T13:45:21.320Z,9.30
2019-05-03T13:47:48.399Z,12.37
2019-05-03T13:50:15.663Z,11.77
2019-05-03T13:52:42.802Z,8.53
2019-05-03T13:55:10.068Z,10.50
2019-05-03T13:57:37.143Z,9.00
2019-05-03T14:00:05.798Z,12.10
2019-05-03T14:02:35.732Z,11.93
2019-05-03T14:05:04.955Z,10.10
2019-05-03T14:07:32.141Z,10.80
2019-05-03T14:09:59.216Z,9.47
2019-05-03T14:12:26.284Z,9.73
2019-05-03T14:14:55.978Z,12.37
2019-05-03T14:17:25.249Z,11.53
2019-05-03T14:19:58.667Z,9.90
2019-05-03T14:22:27.485Z,10.50
2019-05-03T14:24:54.532Z,11.40
2019-05-03T14:27:21.939Z,11.27
2019-05-03T14:29:48.989Z,10.93
2019-05-03T14:32:25.751Z,12.53
2019-05-03T14:34:45.443Z,10.60
2019-05-03T14:37:12.617Z,10.03
2019-05-03T14:39:39.684Z,9.23
2019-05-03T14:42:07.101Z,10.33
2019-05-03T14:44:35.756Z,10.17
2019-05-03T14:47:05.618Z,9.90
2019-05-03T14:49:34.502Z,13.33
2019-05-03T14:52:01.323Z,10.93
2019-05-03T14:54:31.145Z,11.07
2019-05-03T14:57:06.468Z,7.63
2019-05-03T15:00:11.462Z,10.63
2019-05-03T15:02:50.736Z,8.80
2019-05-03T15:05:15.108Z,9.13
2019-05-03T15:07:42.452Z,6.63
2019-05-03T15:10:09.815Z,6.77
2019-05-03T15:12:36.989Z,10.77
2019-05-03T15:15:05.312Z,11.77
2019-05-03T15:17:32.604Z,7.50
2019-05-03T15:19:59.665Z,6.63
2019-05-03T15:22:26.837Z,7.87
2019-05-03T15:24:54.598Z,5.23
2019-05-03T15:27:21.971Z,7.00
2019-05-03T15:29:49.268Z,8.00
2019-05-03T15:32:16.335Z,7.17
2019-05-03T15:34:44.699Z,8.30
2019-05-03T15:37:11.936Z,9.17
2019-05-03T15:39:40.407Z,7.20
2019-05-03T15:42:07.864Z,6.67
2019-05-03T15:45:00.360Z,11.73
2019-05-03T15:47:31.855Z,7.03
2019-05-03T15:49:59.155Z,7.63
2019-05-03T15:52:26.226Z,10.43
2019-05-03T15:54:55.089Z,6.63
2019-05-03T15:57:22.346Z,7.70
2019-05-03T15:59:49.396Z,9.60
2019-05-03T16:02:16.464Z,7.70
2019-05-03T16:04:44.811Z,7.27
2019-05-03T16:07:14.290Z,7.67
2019-05-03T16:09:41.552Z,5.93
2019-05-03T16:12:08.756Z,4.73
2019-05-03T16:14:35.992Z,6.57
2019-05-03T16:17:04.466Z,9.07
2019-05-03T16:19:31.743Z,8.90
2019-05-03T16:21:59.920Z,6.97
2019-05-03T16:24:26.999Z,7.47
2019-05-03T16:27:12.131Z,6.13
2019-05-03T16:29:41.411Z,5.70
2019-05-03T16:32:09.377Z,6.17
2019-05-03T16:34:36.435Z,8.00
2019-05-03T16:37:04.463Z,7.20
2019-05-03T16:39:31.586Z,7.00
2019-05-03T16:41:58.659Z,6.00
2019-05-03T16:44:25.718Z,5.53
2019-05-03T16:46:55.404Z,6.97
2019-05-03T16:49:24.569Z,6.93
2019-05-03T16:51:51.503Z,5.93
2019-05-03T16:54:18.592Z,5.07
2019-05-03T16:56:45.653Z,5.90
2019-05-03T16:59:14.805Z,6.80
2019-05-03T17:01:41.789Z,4.93
2019-05-03T17:04:29.172Z,6.50
2019-05-03T17:07:05.387Z,6.00
2019-05-03T17:09:42.656Z,6.97
2019-05-03T17:12:17.906Z,5.13
2019-05-03T17:14:45.056Z,7.70
2019-05-03T17:17:12.107Z,8.50
2019-05-03T17:19:39.552Z,7.90
2019-05-03T17:22:06.621Z,7.57
2019-05-03T17:24:35.321Z,5.67
2019-05-03T17:27:02.992Z,8.13
2019-05-03T17:29:31.255Z,9.20
2019-05-03T17:31:58.319Z,7.20
2019-05-03T17:34:25.380Z,5.60
2019-05-03T17:36:54.405Z,6.47
2019-05-03T17:39:41.080Z,6.63
2019-05-03T17:42:17.348Z,7.93
2019-05-03T17:44:45.131Z,7.60
2019-05-03T17:47:12.680Z,6.17
2019-05-03T17:49:39.735Z,7.97
2019-05-03T17:52:26.462Z,10.33
2019-05-03T17:55:15.042Z,8.47
2019-05-03T17:57:55.142Z,7.70
2019-05-03T18:00:40.895Z,7.67
2019-05-03T18:03:08.181Z,7.47
2019-05-03T18:05:55.165Z,9.33
2019-05-03T18:08:37.084Z,7.53
2019-05-03T18:11:07.917Z,6.17
2019-05-03T18:13:35.414Z,8.53
2019-05-03T18:16:04.722Z,6.03
2019-05-03T18:18:32.167Z,9.47
2019-05-03T18:20:59.233Z,8.33
2019-05-03T18:23:26.505Z,7.03
2019-05-03T18:25:54.797Z,8.67
2019-05-03T18:28:22.136Z,7.70
2019-05-03T18:30:49.284Z,7.10
2019-05-03T18:33:16.352Z,6.97
2019-05-03T18:35:43.436Z,5.77
2019-05-03T18:38:10.509Z,7.27
2019-05-03T18:40:37.578Z,7.03
2019-05-03T18:43:21.056Z,9.00
2019-05-03T18:46:17.233Z,8.83
2019-05-03T18:48:44.602Z,10.40
2019-05-03T18:51:11.839Z,7.97
2019-05-03T18:53:38.903Z,6.47
2019-05-03T18:56:06.319Z,7.50
2019-05-03T18:58:33.492Z,7.43
2019-05-03T19:01:00.554Z,8.80
2019-05-03T19:03:27.624Z,5.90
2019-05-03T19:05:58.577Z,7.30
2019-05-03T19:08:50.500Z,6.30
2019-05-03T19:11:32.099Z,8.33
2019-05-03T19:14:04.557Z,5.83
2019-05-03T19:16:51.727Z,6.57
2019-05-03T19:19:21.300Z,5.90
2019-05-03T19:21:48.465Z,6.87
2019-05-03T19:24:15.648Z,6.13
2019-05-03T19:26:44.917Z,7.13
2019-05-03T19:29:12.015Z,7.63
2019-05-03T19:31:39.292Z,7.27
2019-05-03T19:34:06.575Z,8.63
2019-05-03T19:36:34.865Z,7.93
2019-05-03T19:39:04.994Z,7.73
2019-05-03T19:41:34.441Z,6.77
2019-05-03T19:44:01.735Z,7.83
2019-05-03T19:46:28.907Z,8.53
2019-05-03T19:48:55.967Z,8.00
2019-05-03T19:51:23.032Z,10.00
2019-05-03T19:53:54.931Z,7.70
2019-05-03T19:56:22.616Z,8.33
2019-05-03T19:58:52.599Z,10.30
2019-05-03T20:01:39.335Z,10.77
2019-05-03T20:04:41.268Z,9.30
2019-05-03T20:07:27.601Z,7.63
2019-05-03T20:09:54.772Z,7.70
2019-05-03T20:12:21.827Z,7.00
2019-05-03T20:14:48.909Z,7.43
2019-05-03T20:17:16.211Z,9.03
2019-05-03T20:19:45.066Z,7.67
2019-05-03T20:22:12.251Z,9.17
2019-05-03T20:24:39.604Z,9.17
2019-05-03T20:27:06.664Z,7.00
2019-05-03T20:29:34.516Z,8.30
2019-05-03T20:32:01.712Z,7.87
2019-05-03T20:34:28.783Z,8.57
2019-05-03T20:36:55.932Z,8.53
2019-05-03T20:39:22.995Z,10.40
2019-05-03T20:41:50.064Z,10.37
2019-05-03T20:44:40.306Z,8.43
2019-05-03T20:47:27.147Z,9.40
2019-05-03T20:50:12.943Z,8.57
2019-05-03T20:52:40.020Z,9.20
2019-05-03T20:55:07.204Z,9.63
2019-05-03T20:57:35.284Z,11.80
2019-05-03T21:00:04.514Z,10.53
2019-05-03T21:02:34.471Z,9.07
2019-05-03T21:05:01.965Z,7.67
2019-05-03T21:07:29.024Z,7.20
2019-05-03T21:09:56.088Z,7.07
2019-05-03T21:12:24.977Z,8.70
2019-05-03T21:14:52.123Z,7.73
2019-05-03T21:17:37.483Z,6.67
2019-05-03T21:20:09.213Z,8.90
2019-05-03T21:22:44.336Z,8.43
2019-05-03T21:25:25.952Z,7.60
2019-05-03T21:27:53.028Z,6.63
2019-05-03T21:30:20.288Z,8.97
2019-05-03T21:32:47.365Z,11.00
2019-05-03T21:35:14.866Z,8.73
2019-05-03T21:37:42.185Z,6.77
2019-05-03T21:40:09.355Z,9.20
2019-05-03T21:42:36.424Z,7.57
2019-05-03T21:45:04.693Z,7.33
2019-05-03T21:47:40.373Z,7.70
2019-05-03T21:50:09.968Z,8.60
2019-05-03T21:52:37.044Z,8.27
2019-05-03T21:55:05.463Z,7.67
2019-05-03T21:57:34.476Z,7.30
2019-05-03T22:00:02.296Z,9.73
2019-05-03T22:02:31.272Z,7.90
2019-05-03T22:04:58.327Z,6.20
2019-05-03T22:07:26.826Z,6.30
2019-05-03T22:09:54.523Z,7.83
2019-05-03T22:12:21.652Z,5.33
2019-05-03T22:14:58.329Z,8.33
2019-05-03T22:17:44.733Z,5.27
2019-05-03T22:20:24.619Z,7.17
2019-05-03T22:22:58.639Z,6.20
2019-05-03T22:25:28.832Z,6.07
2019-05-03T22:27:55.901Z,5.50
2019-05-03T22:30:26.853Z,6.83
2019-05-03T22:32:54.841Z,6.37
2019-05-03T22:35:22.009Z,7.23
2019-05-03T22:37:49.068Z,7.83
2019-05-03T22:40:16.461Z,7.90
2019-05-03T22:42:44.769Z,7.30
2019-05-03T22:45:12.383Z,5.17
2019-05-03T22:47:39.436Z,7.83
2019-05-03T22:50:06.699Z,6.50
2019-05-03T22:52:34.979Z,6.30
2019-05-03T22:55:04.702Z,7.30
2019-05-03T22:57:32.067Z,7.40
2019-05-03T22:59:59.136Z,6.00
2019-05-03T23:02:26.215Z,6.43
2019-05-03T23:04:55.267Z,5.83
2019-05-03T23:07:22.221Z,6.77
2019-05-03T23:09:49.291Z,5.30
2019-05-03T23:12:16.444Z,7.43
2019-05-03T23:14:44.656Z,7.27
2019-05-03T23:17:12.097Z,6.67
2019-05-03T23:19:41.777Z,8.30
2019-05-03T23:22:15.313Z,8.00
2019-05-03T23:24:42.599Z,9.27
2019-05-03T23:27:09.669Z,6.40
2019-05-03T23:29:37.384Z,8.57
2019-05-03T23:32:04.813Z,8.53
2019-05-03T23:34:32.097Z,9.70
2019-05-03T23:36:59.156Z,8.03
2019-05-03T23:39:26.547Z,7.83
2019-05-03T23:41:55.578Z,7.83
2019-05-03T23:44:24.423Z,11.40
2019-05-03T23:47:25.089Z,8.17
2019-05-03T23:49:52.499Z,8.03
2019-05-03T23:52:32.484Z,7.50
2019-05-03T23:55:01.107Z,8.17
2019-05-03T23:57:28.168Z,8.13
2019-05-03T23:59:56.918Z,9.07
